Time;durP1;ratioP1;P1;durP2;ratioP2;P2;SDS_P1;SDS_P2;PMS_P1;PMS_P2;Temp;Humidity;BMP_temperature;BMP_pressure;BME280_temperature;BME280_humidity;BME280_pressure;Samples;Min_cycle;Max_cycle;Signal;HPM_P1;HPM_P2
2023/09/10 00:00:50;;;;;;;5.72;5.13;;;25.10;65.70;;;;;;5102788;28;20038;-78
2023/09/10 00:03:16;;;;;;;5.57;4.95;;;25.10;65.70;;;;;;5086328;28;20410;-78
2023/09/10 00:05:42;;;;;;;4.72;4.22;;;25.00;65.70;;;;;;5085499;28;20468;-78
2023/09/10 00:08:08;;;;;;;5.63;4.80;;;25.00;65.80;;;;;;5099707;28;20034;-78
2023/09/10 00:10:33;;;;;;;4.97;4.20;;;25.00;65.70;;;;;;5065126;28;20035;-78
2023/09/10 00:12:59;;;;;;;4.90;4.13;;;25.00;65.80;;;;;;5098312;28;20040;-79
2023/09/10 00:15:25;;;;;;;5.63;4.88;;;24.90;65.80;;;;;;5080802;28;20095;-78
2023/09/10 00:17:52;;;;;;;5.45;4.45;;;24.90;65.80;;;;;;5081128;28;20531;-78
2023/09/10 00:20:18;;;;;;;5.18;4.43;;;24.90;65.80;;;;;;5081001;28;20039;-78
2023/09/10 00:22:44;;;;;;;6.38;4.50;;;24.90;65.90;;;;;;5080882;28;20092;-78
2023/09/10 00:25:10;;;;;;;5.43;4.63;;;24.80;65.90;;;;;;5097381;28;20032;-79
2023/09/10 00:27:36;;;;;;;5.63;4.70;;;24.80;65.90;;;;;;5080992;28;20024;-78
2023/09/10 00:30:03;;;;;;;5.07;4.50;;;24.80;65.90;;;;;;5097788;28;20434;-79
2023/09/10 00:32:29;;;;;;;5.50;4.63;;;24.80;65.90;;;;;;5080682;28;20499;-78
2023/09/10 00:34:55;;;;;;;5.28;4.32;;;24.80;66.00;;;;;;5080592;28;20031;-79
2023/09/10 00:37:20;;;;;;;5.13;4.53;;;24.80;66.00;;;;;;5080380;28;20028;-78
2023/09/10 00:39:47;;;;;;;5.40;4.50;;;24.70;66.00;;;;;;5097579;28;20512;-78
2023/09/10 00:42:13;;;;;;;5.50;4.90;;;24.70;66.00;;;;;;5097485;28;20032;-78
2023/09/10 00:44:41;;;;;;;5.43;4.68;;;24.70;66.70;;;;;;5097358;28;20028;-78
2023/09/10 00:47:08;;;;;;;5.10;4.60;;;24.70;66.10;;;;;;5097237;28;20173;-78
2023/09/10 00:49:35;;;;;;;5.63;4.78;;;24.60;66.00;;;;;;5080082;28;20474;-78
2023/09/10 00:52:04;;;;;;;5.68;4.95;;;24.60;66.10;;;;;;5115362;28;20477;-79
2023/09/10 00:54:35;;;;;;;5.95;4.82;;;24.60;66.20;;;;;;5097012;28;20388;-78
2023/09/10 00:57:01;;;;;;;6.05;5.28;;;24.60;66.20;;;;;;5080382;28;20399;-78
2023/09/10 00:59:31;;;;;;;5.18;4.63;;;24.60;66.20;;;;;;5114898;28;20031;-79
2023/09/10 01:02:02;;;;;;;5.55;4.95;;;24.60;66.30;;;;;;5080070;28;20034;-79
2023/09/10 01:04:28;;;;;;;6.70;5.63;;;24.60;66.30;;;;;;5114968;28;20035;-78
2023/09/10 01:06:54;;;;;;;5.88;5.28;;;24.50;66.20;;;;;;5097082;28;20070;-78
2023/09/10 01:09:20;;;;;;;5.90;5.13;;;24.50;66.30;;;;;;5096401;28;20031;-78
2023/09/10 01:11:58;;;;;;;6.13;5.53;;;24.50;66.30;;;;;;5096982;28;20027;-78
2023/09/10 01:14:40;;;;;;;5.72;5.03;;;24.40;66.30;;;;;;5096716;28;20024;-79
2023/09/10 01:17:43;;;;;;;5.50;4.90;;;24.40;66.40;;;;;;5097007;28;20031;-78
2023/09/10 01:20:44;;;;;;;6.10;5.28;;;24.40;66.40;;;;;;5097027;28;20035;-79
2023/09/10 01:23:46;;;;;;;6.13;5.53;;;24.40;66.40;;;;;;5076815;28;20040;-78
2023/09/10 01:26:11;;;;;;;5.82;5.22;;;24.40;66.50;;;;;;5114976;28;20020;-79
2023/09/10 01:28:37;;;;;;;6.35;5.50;;;24.40;66.40;;;;;;5079358;28;20031;-77
2023/09/10 01:31:03;;;;;;;6.55;5.38;;;24.30;66.40;;;;;;5079967;28;20126;-79
2023/09/10 01:33:34;;;;;;;5.80;5.15;;;24.30;66.50;;;;;;5114188;28;20387;-78
2023/09/10 01:36:23;;;;;;;6.30;5.35;;;24.30;66.50;;;;;;5096677;28;20035;-78
2023/09/10 01:39:17;;;;;;;6.63;5.45;;;24.30;66.60;;;;;;5096410;28;20042;-78
2023/09/10 01:41:46;;;;;;;5.75;5.03;;;24.30;66.60;;;;;;5096489;28;20114;-78
2023/09/10 01:44:14;;;;;;;6.03;5.43;;;24.20;66.50;;;;;;5096322;28;20027;-78
2023/09/10 01:46:41;;;;;;;5.90;5.20;;;24.20;66.60;;;;;;5096115;28;20030;-78
2023/09/10 01:49:08;;;;;;;6.28;5.68;;;24.20;66.60;;;;;;5095855;28;20050;-78
2023/09/10 01:51:33;;;;;;;7.28;5.25;;;24.20;66.60;;;;;;5079057;28;20027;-78
2023/09/10 01:53:59;;;;;;;5.95;5.35;;;24.20;66.60;;;;;;5079122;28;20042;-78
2023/09/10 01:56:25;;;;;;;6.55;5.85;;;24.20;66.60;;;;;;5078549;28;20024;-79
2023/09/10 01:58:51;;;;;;;6.38;5.07;;;24.20;66.70;;;;;;5078998;28;20035;-78
2023/09/10 02:01:17;;;;;;;6.70;5.97;;;24.10;66.70;;;;;;5079103;28;20031;-78
2023/09/10 02:03:43;;;;;;;6.20;5.47;;;24.10;66.70;;;;;;5062320;28;20024;-79
2023/09/10 02:06:08;;;;;;;6.72;6.03;;;24.20;66.80;;;;;;5113990;28;20032;-78
2023/09/10 02:08:34;;;;;;;6.82;5.85;;;24.10;66.80;;;;;;5095681;28;20055;-79
2023/09/10 02:11:04;;;;;;;6.28;5.53;;;24.10;66.80;;;;;;5079143;28;20084;-80
2023/09/10 02:13:30;;;;;;;6.45;5.72;;;24.10;66.80;;;;;;5079441;28;20031;-79
2023/09/10 02:15:56;;;;;;;6.72;6.00;;;24.10;67.50;;;;;;5079953;28;20023;-80
2023/09/10 02:18:22;;;;;;;6.30;5.53;;;24.10;66.80;;;;;;5080356;28;20036;-79
2023/09/10 02:20:48;;;;;;;6.43;5.78;;;24.00;67.40;;;;;;5063088;28;20501;-79
2023/09/10 02:23:14;;;;;;;6.88;5.95;;;24.00;66.80;;;;;;5079711;28;20047;-80
2023/09/10 02:25:40;;;;;;;6.03;5.43;;;24.00;66.80;;;;;;5096133;28;20028;-80
2023/09/10 02:28:07;;;;;;;6.13;5.53;;;24.00;66.80;;;;;;5079148;28;20041;-80
2023/09/10 02:30:34;;;;;;;6.28;5.50;;;24.00;66.90;;;;;;5079366;28;20035;-79
2023/09/10 02:33:00;;;;;;;6.65;6.00;;;24.00;66.90;;;;;;5079389;28;20040;-80
2023/09/10 02:35:25;;;;;;;6.07;5.45;;;24.00;66.90;;;;;;5078949;28;20024;-80
2023/09/10 02:37:51;;;;;;;6.07;5.45;;;23.90;66.90;;;;;;5079234;28;20028;-80
2023/09/10 02:40:17;;;;;;;6.68;5.72;;;23.90;67.00;;;;;;5062568;28;20384;-80
2023/09/10 02:42:43;;;;;;;6.40;5.80;;;23.90;66.90;;;;;;5079228;28;20444;-80
2023/09/10 02:45:09;;;;;;;6.22;5.63;;;23.90;66.90;;;;;;5079990;28;20047;-79
2023/09/10 02:47:35;;;;;;;5.85;5.25;;;23.90;66.90;;;;;;5079220;28;20038;-80
2023/09/10 02:50:00;;;;;;;6.30;5.25;;;23.90;66.90;;;;;;5062471;28;20059;-79
2023/09/10 02:52:30;;;;;;;6.00;5.40;;;23.90;67.00;;;;;;5062480;28;20034;-80
2023/09/10 02:54:59;;;;;;;5.85;5.25;;;23.90;67.00;;;;;;5096438;28;20028;-80
2023/09/10 02:57:24;;;;;;;6.18;5.45;;;23.90;67.00;;;;;;5097169;28;20036;-80
2023/09/10 02:59:50;;;;;;;6.32;5.70;;;23.80;67.00;;;;;;5079219;28;20353;-79
2023/09/10 03:02:16;;;;;;;7.03;6.13;;;23.90;67.00;;;;;;5079149;28;20100;-80
2023/09/10 03:04:42;;;;;;;8.00;5.82;;;23.80;67.10;;;;;;5062413;28;20435;-80
2023/09/10 03:07:08;;;;;;;5.95;5.35;;;23.80;67.10;;;;;;5062527;28;20035;-80
2023/09/10 03:09:34;;;;;;;6.10;5.13;;;23.80;67.10;;;;;;5095679;28;20380;-80
2023/09/10 03:12:26;;;;;;;6.22;5.57;;;23.80;67.10;;;;;;5078959;28;20039;-80
2023/09/10 03:14:55;;;;;;;6.30;5.68;;;23.80;67.20;;;;;;5079400;28;20101;-80
2023/09/10 03:17:21;;;;;;;6.22;5.63;;;23.80;67.10;;;;;;5079008;28;20032;-80
2023/09/10 03:19:48;;;;;;;6.03;5.43;;;23.70;67.10;;;;;;5078707;28;20034;-80
2023/09/10 03:22:15;;;;;;;6.20;5.60;;;23.70;67.10;;;;;;5066018;28;20028;-79
2023/09/10 03:24:41;;;;;;;6.60;5.90;;;23.70;67.10;;;;;;5082878;28;20054;-80
2023/09/10 03:27:07;;;;;;;6.32;5.70;;;23.70;67.10;;;;;;5082930;28;20475;-80
2023/09/10 03:29:34;;;;;;;6.20;5.60;;;23.70;67.10;;;;;;5083133;28;20123;-80
2023/09/10 03:32:02;;;;;;;6.47;5.85;;;23.70;67.20;;;;;;5099696;28;20042;-79
2023/09/10 03:34:28;;;;;;;6.15;5.55;;;23.70;67.20;;;;;;5083221;28;20028;-79
2023/09/10 03:36:55;;;;;;;6.55;5.88;;;23.60;67.20;;;;;;5099826;28;20537;-80
2023/09/10 03:39:21;;;;;;;6.13;5.40;;;23.60;67.20;;;;;;5099664;28;20036;-79
2023/09/10 03:41:47;;;;;;;6.85;5.75;;;23.60;67.20;;;;;;5082526;28;20043;-80
2023/09/10 03:44:13;;;;;;;6.30;5.70;;;23.60;67.20;;;;;;5083011;28;20114;-79
2023/09/10 03:46:39;;;;;;;6.22;5.63;;;23.60;67.20;;;;;;5065824;28;20380;-80
2023/09/10 03:49:04;;;;;;;6.65;5.97;;;23.60;67.20;;;;;;5081827;28;20516;-80
2023/09/10 03:51:31;;;;;;;6.30;5.68;;;23.60;67.30;;;;;;5099480;28;20032;-80
2023/09/10 03:53:56;;;;;;;6.53;5.85;;;23.60;67.30;;;;;;5100013;28;20036;-80
2023/09/10 03:56:23;;;;;;;6.88;6.18;;;23.60;67.30;;;;;;5082514;28;20373;-79
2023/09/10 03:58:49;;;;;;;6.72;6.03;;;23.50;67.20;;;;;;5082175;28;20036;-79
2023/09/10 04:01:15;;;;;;;6.97;6.28;;;23.50;67.30;;;;;;5082947;28;20028;-80
2023/09/10 04:03:41;;;;;;;6.90;6.20;;;23.60;67.30;;;;;;5099286;28;20377;-80
2023/09/10 04:06:07;;;;;;;6.65;5.95;;;23.50;67.30;;;;;;5082378;28;20065;-80
2023/09/10 04:08:33;;;;;;;6.13;5.53;;;23.50;67.30;;;;;;5099066;28;20486;-79
2023/09/10 04:10:59;;;;;;;6.57;5.88;;;23.50;67.30;;;;;;5065558;28;20024;-80
2023/09/10 04:13:25;;;;;;;6.70;6.00;;;23.50;67.30;;;;;;5081916;28;20495;-79
2023/09/10 04:15:51;;;;;;;6.80;6.10;;;23.50;67.40;;;;;;5099107;28;20028;-80
2023/09/10 04:18:17;;;;;;;7.38;6.15;;;23.50;68.10;;;;;;5099011;28;20030;-80
2023/09/10 04:20:42;;;;;;;7.15;6.45;;;23.50;67.40;;;;;;5065434;28;20380;-79
2023/09/10 04:23:08;;;;;;;7.60;6.53;;;23.50;67.40;;;;;;5098703;28;20468;-79
2023/09/10 04:25:36;;;;;;;7.10;6.30;;;23.40;67.40;;;;;;5082127;28;20117;-80
2023/09/10 04:28:02;;;;;;;7.30;6.50;;;23.40;67.40;;;;;;5082004;28;20032;-80
2023/09/10 04:30:30;;;;;;;6.88;6.07;;;23.40;67.50;;;;;;5082513;28;20039;-79
2023/09/10 04:32:56;;;;;;;7.55;6.70;;;23.40;67.50;;;;;;5097587;28;20019;-79
2023/09/10 04:35:22;;;;;;;6.85;6.13;;;23.40;67.50;;;;;;5065233;28;20028;-80
2023/09/10 04:37:48;;;;;;;7.35;6.65;;;23.40;67.50;;;;;;5081629;28;20035;-80
2023/09/10 04:40:14;;;;;;;7.13;6.43;;;23.40;67.50;;;;;;5081772;28;20126;-80
2023/09/10 04:42:40;;;;;;;7.55;6.75;;;23.40;67.50;;;;;;5064713;28;20028;-80
2023/09/10 04:45:06;;;;;;;7.03;6.32;;;23.40;67.50;;;;;;5098477;28;20080;-79
2023/09/10 04:47:32;;;;;;;7.28;6.40;;;23.30;67.50;;;;;;5081419;28;20028;-79
2023/09/10 04:49:58;;;;;;;7.35;6.65;;;23.30;67.60;;;;;;5098029;28;20648;-79
2023/09/10 04:52:25;;;;;;;7.30;6.57;;;23.30;67.50;;;;;;5064768;28;20365;-79
2023/09/10 04:54:50;;;;;;;7.53;6.72;;;23.30;67.60;;;;;;5081266;28;20031;-80
2023/09/10 04:57:16;;;;;;;7.20;6.47;;;23.30;67.60;;;;;;5081117;28;20120;-80
2023/09/10 04:59:42;;;;;;;7.40;6.68;;;23.30;67.60;;;;;;5098009;28;20044;-80
2023/09/10 05:02:08;;;;;;;7.53;6.72;;;23.30;67.60;;;;;;5081013;28;20031;-79
2023/09/10 05:04:34;;;;;;;7.57;6.88;;;23.30;67.70;;;;;;5099338;28;20364;-79
2023/09/10 05:07:00;;;;;;;8.23;7.43;;;23.20;67.70;;;;;;5098258;28;20088;-79
2023/09/10 05:09:26;;;;;;;7.65;6.80;;;23.30;67.80;;;;;;5081081;28;20040;-80
2023/09/10 05:11:57;;;;;;;7.60;6.75;;;23.20;67.70;;;;;;5081048;28;20035;-80
2023/09/10 05:14:24;;;;;;;7.05;6.35;;;23.20;67.80;;;;;;5098730;28;20526;-80
2023/09/10 05:16:49;;;;;;;7.75;6.95;;;23.20;67.70;;;;;;5065532;28;20096;-79
2023/09/10 05:19:15;;;;;;;7.80;7.00;;;23.20;67.80;;;;;;5080838;28;20467;-79
2023/09/10 05:21:41;;;;;;;7.43;6.65;;;23.20;67.80;;;;;;5097772;28;20028;-79
2023/09/10 05:24:07;;;;;;;7.35;6.65;;;23.20;67.80;;;;;;5064187;28;20081;-79
2023/09/10 05:26:34;;;;;;;7.55;6.75;;;23.20;67.80;;;;;;5080785;28;20384;-79
2023/09/10 05:28:59;;;;;;;7.22;6.53;;;23.10;67.80;;;;;;5097462;28;20050;-80
2023/09/10 05:31:25;;;;;;;7.50;6.68;;;23.10;67.80;;;;;;5081337;28;20407;-80
2023/09/10 05:33:51;;;;;;;7.20;6.47;;;23.10;67.80;;;;;;5097083;28;20032;-80
2023/09/10 05:36:17;;;;;;;7.82;7.03;;;23.10;67.80;;;;;;5080690;28;20039;-79
2023/09/10 05:38:43;;;;;;;7.47;6.60;;;23.00;67.80;;;;;;5097157;28;20028;-79
2023/09/10 05:41:09;;;;;;;7.53;6.72;;;23.10;67.80;;;;;;5080560;28;20032;-79
2023/09/10 05:43:35;;;;;;;7.15;6.45;;;23.00;67.80;;;;;;5081064;28;20110;-80
2023/09/10 05:46:00;;;;;;;7.45;6.75;;;23.10;67.80;;;;;;5081372;28;20085;-79
2023/09/10 05:48:26;;;;;;;7.28;6.43;;;23.00;67.90;;;;;;5080929;28;20054;-79
2023/09/10 05:50:59;;;;;;;7.32;6.55;;;23.00;67.90;;;;;;5097154;28;20032;-79
2023/09/10 05:53:27;;;;;;;7.47;6.72;;;23.00;67.90;;;;;;5096641;28;20040;-79
2023/09/10 05:55:53;;;;;;;8.05;7.25;;;23.00;67.90;;;;;;5096839;28;20036;-79
2023/09/10 05:58:20;;;;;;;7.82;7.03;;;23.00;67.90;;;;;;5080422;28;20376;-79
2023/09/10 06:00:46;;;;;;;7.60;6.65;;;23.00;68.00;;;;;;5081006;28;20100;-79
2023/09/10 06:03:12;;;;;;;7.97;7.18;;;23.00;68.00;;;;;;5080025;28;20548;-80
2023/09/10 06:05:38;;;;;;;8.05;6.68;;;23.00;68.00;;;;;;5080181;28;20097;-80
2023/09/10 06:08:04;;;;;;;7.25;6.47;;;23.00;68.00;;;;;;5063258;28;20133;-80
2023/09/10 06:10:30;;;;;;;7.57;6.57;;;23.00;68.00;;;;;;5096571;28;20127;-80
2023/09/10 06:12:56;;;;;;;7.28;6.53;;;23.00;68.10;;;;;;5079511;28;20082;-80
2023/09/10 06:15:21;;;;;;;7.75;6.95;;;23.00;68.00;;;;;;5079788;28;20068;-80
2023/09/10 06:17:47;;;;;;;7.10;6.38;;;23.00;68.00;;;;;;5096624;28;20039;-80
2023/09/10 06:20:14;;;;;;;7.85;7.03;;;23.00;68.00;;;;;;5096702;28;20032;-80
2023/09/10 06:22:40;;;;;;;7.68;6.88;;;22.90;68.00;;;;;;5079599;28;20024;-79
2023/09/10 06:25:07;;;;;;;7.32;6.55;;;23.00;68.10;;;;;;5079512;28;20076;-80
2023/09/10 06:27:33;;;;;;;7.60;6.82;;;22.90;68.70;;;;;;5062887;28;20032;-80
2023/09/10 06:29:58;;;;;;;7.15;6.32;;;22.90;68.10;;;;;;5079510;28;20043;-79
2023/09/10 06:32:24;;;;;;;7.88;7.07;;;22.90;68.10;;;;;;5096904;28;20039;-80
2023/09/10 06:34:50;;;;;;;7.32;6.63;;;23.00;68.10;;;;;;5079542;28;20050;-80
2023/09/10 06:37:16;;;;;;;7.80;7.00;;;22.90;68.10;;;;;;5080055;28;20027;-80
2023/09/10 06:39:43;;;;;;;7.88;7.00;;;22.90;68.20;;;;;;5079226;28;20126;-80
2023/09/10 06:42:11;;;;;;;7.75;6.93;;;22.90;68.20;;;;;;5079239;28;20059;-80
2023/09/10 06:44:44;;;;;;;7.47;6.72;;;22.90;68.20;;;;;;5080180;28;20020;-81
2023/09/10 06:47:11;;;;;;;7.68;6.88;;;22.90;68.20;;;;;;5079952;28;20088;-80
2023/09/10 06:49:36;;;;;;;8.13;7.32;;;22.90;68.30;;;;;;5078853;28;20079;-80
2023/09/10 06:52:04;;;;;;;8.50;7.68;;;22.90;68.30;;;;;;5080021;28;20128;-80
2023/09/10 06:54:31;;;;;;;8.10;7.30;;;22.90;68.40;;;;;;5079233;28;20038;-80
2023/09/10 06:56:58;;;;;;;8.73;7.63;;;22.90;68.30;;;;;;5078759;28;20063;-80
2023/09/10 06:59:24;;;;;;;8.10;7.30;;;23.00;69.10;;;;;;5079490;28;20035;-80
2023/09/10 07:01:50;;;;;;;8.45;7.65;;;23.00;68.50;;;;;;5114382;28;20476;-80
2023/09/10 07:04:18;;;;;;;7.43;6.68;;;22.90;68.30;;;;;;5078845;28;20079;-80
2023/09/10 07:06:48;;;;;;;8.65;7.75;;;23.00;68.50;;;;;;5114645;28;20028;-80
2023/09/10 07:09:17;;;;;;;8.48;7.60;;;23.00;68.50;;;;;;5114301;28;20491;-79
2023/09/10 07:11:43;;;;;;;8.38;7.50;;;23.00;68.50;;;;;;5095811;28;20024;-79
2023/09/10 07:14:09;;;;;;;8.27;7.47;;;23.00;68.40;;;;;;5078914;28;20383;-79
2023/09/10 07:16:34;;;;;;;8.77;7.88;;;23.00;68.30;;;;;;5095915;28;20028;-79
2023/09/10 07:19:03;;;;;;;8.38;7.57;;;23.00;68.40;;;;;;5079039;28;20391;-79
2023/09/10 07:21:29;;;;;;;8.85;7.95;;;23.00;68.50;;;;;;5096259;28;20038;-80
2023/09/10 07:23:55;;;;;;;8.70;7.85;;;23.10;68.50;;;;;;5079700;28;20035;-80
2023/09/10 07:26:21;;;;;;;9.57;8.18;;;23.10;68.50;;;;;;5095654;28;20047;-80
2023/09/10 07:28:47;;;;;;;9.77;8.77;;;23.10;68.50;;;;;;5078435;28;20067;-80
2023/09/10 07:31:13;;;;;;;8.98;8.07;;;23.10;68.60;;;;;;5096364;28;20032;-79
2023/09/10 07:33:38;;;;;;;9.02;8.10;;;23.10;68.60;;;;;;5078654;28;20035;-79
2023/09/10 07:36:04;;;;;;;10.07;9.07;;;23.10;68.60;;;;;;5095197;28;20038;-79
2023/09/10 07:38:31;;;;;;;9.52;8.55;;;23.20;68.80;;;;;;5078794;28;20027;-79
2023/09/10 07:40:56;;;;;;;10.13;9.13;;;23.20;68.80;;;;;;5062156;28;20027;-80
2023/09/10 07:43:23;;;;;;;10.13;9.10;;;23.20;68.80;;;;;;5078785;28;20092;-80
2023/09/10 07:45:49;;;;;;;10.25;9.25;;;23.20;68.90;;;;;;5062109;28;20028;-79
2023/09/10 07:48:16;;;;;;;9.90;8.93;;;23.20;68.90;;;;;;5095529;28;20039;-80
2023/09/10 07:50:42;;;;;;;11.38;10.27;;;23.20;69.00;;;;;;5095471;28;20056;-79
2023/09/10 07:53:08;;;;;;;11.00;9.90;;;23.30;69.00;;;;;;5095768;28;20027;-79
2023/09/10 07:55:37;;;;;;;11.63;10.50;;;23.30;69.00;;;;;;5078570;28;20035;-79
2023/09/10 07:58:03;;;;;;;12.35;11.15;;;23.30;69.10;;;;;;5095217;28;20042;-80
2023/09/10 08:00:34;;;;;;;11.27;10.18;;;23.30;69.00;;;;;;5096377;28;20035;-79
2023/09/10 08:03:03;;;;;;;11.38;10.27;;;23.40;69.10;;;;;;5078492;28;20034;-80
2023/09/10 08:05:29;;;;;;;10.63;9.60;;;23.40;69.10;;;;;;5078467;28;20024;-80
2023/09/10 08:07:55;;;;;;;11.38;10.20;;;23.40;69.10;;;;;;5095258;28;20035;-79
2023/09/10 08:10:21;;;;;;;12.38;11.18;;;23.40;69.10;;;;;;5099013;28;20055;-80
2023/09/10 08:12:46;;;;;;;11.75;10.55;;;23.40;69.10;;;;;;5098980;28;20023;-80
2023/09/10 08:15:12;;;;;;;11.93;10.75;;;23.40;69.10;;;;;;5099394;28;20399;-79
2023/09/10 08:17:38;;;;;;;11.85;10.68;;;23.50;69.10;;;;;;5099076;28;20042;-80
2023/09/10 08:20:06;;;;;;;11.88;10.68;;;23.50;69.10;;;;;;5099017;28;20074;-80
2023/09/10 08:22:32;;;;;;;12.18;10.98;;;23.60;69.20;;;;;;5099263;28;20452;-80
2023/09/10 08:24:58;;;;;;;11.93;10.77;;;23.60;69.20;;;;;;5065353;28;20069;-80
2023/09/10 08:27:24;;;;;;;12.43;11.23;;;23.60;69.20;;;;;;5082027;28;20484;-79
2023/09/10 08:29:50;;;;;;;12.32;11.13;;;23.60;69.20;;;;;;5099511;28;20490;-79
2023/09/10 08:32:15;;;;;;;11.88;10.60;;;23.70;69.90;;;;;;5099063;28;20036;-79
2023/09/10 08:34:41;;;;;;;14.15;12.75;;;23.70;69.20;;;;;;5081946;28;20388;-80
2023/09/10 08:37:11;;;;;;;12.30;11.10;;;23.70;69.80;;;;;;5082248;28;20376;-81
2023/09/10 08:39:37;;;;;;;13.23;11.93;;;23.80;69.20;;;;;;5082269;28;20028;-80
2023/09/10 08:42:28;;;;;;;13.05;11.75;;;23.80;69.20;;;;;;5081593;28;20028;-79
2023/09/10 08:44:56;;;;;;;12.15;10.95;;;23.90;69.20;;;;;;5098289;28;20040;-79
2023/09/10 08:47:23;;;;;;;12.20;11.00;;;23.90;69.10;;;;;;5098477;28;20020;-79
2023/09/10 08:49:54;;;;;;;12.77;11.48;;;24.00;69.10;;;;;;5097806;28;20044;-79
2023/09/10 08:52:20;;;;;;;13.38;12.07;;;24.00;69.10;;;;;;5098902;28;20043;-80
2023/09/10 08:54:46;;;;;;;13.27;11.95;;;24.10;69.00;;;;;;5081505;28;20357;-79
2023/09/10 08:57:13;;;;;;;12.93;11.73;;;24.10;69.00;;;;;;5116578;28;20030;-80
2023/09/10 08:59:40;;;;;;;13.57;11.45;;;24.20;69.00;;;;;;5098279;28;20092;-79
2023/09/10 09:02:09;;;;;;;12.60;11.40;;;24.20;68.90;;;;;;5115965;28;20027;-79
2023/09/10 09:04:35;;;;;;;13.38;12.07;;;24.40;69.00;;;;;;5081079;28;20035;-79
2023/09/10 09:07:02;;;;;;;12.60;11.40;;;24.40;68.90;;;;;;5116724;28;20511;-79
2023/09/10 09:09:34;;;;;;;13.10;11.80;;;24.40;68.80;;;;;;5081433;28;20047;-80
2023/09/10 09:12:03;;;;;;;13.32;12.10;;;24.50;68.90;;;;;;5081901;28;20110;-80
2023/09/10 09:14:30;;;;;;;13.88;12.50;;;24.60;68.90;;;;;;5097770;28;20076;-80
2023/09/10 09:16:57;;;;;;;13.90;12.57;;;24.70;68.80;;;;;;5081002;28;20383;-79
2023/09/10 09:19:28;;;;;;;13.85;12.45;;;24.80;68.80;;;;;;5097314;28;20039;-80
2023/09/10 09:21:55;;;;;;;13.98;12.55;;;24.80;68.80;;;;;;5115628;28;20464;-80
2023/09/10 09:24:22;;;;;;;13.02;11.82;;;24.90;68.80;;;;;;5115535;28;20050;-81
2023/09/10 09:26:52;;;;;;;13.38;12.07;;;25.00;68.80;;;;;;5080629;28;20027;-80
2023/09/10 09:29:19;;;;;;;12.25;11.05;;;25.10;68.80;;;;;;5097090;28;20046;-80
2023/09/10 09:31:45;;;;;;;13.52;12.23;;;25.20;68.80;;;;;;5080211;28;20063;-80
2023/09/10 09:34:11;;;;;;;13.50;12.13;;;25.30;68.80;;;;;;5080408;28;20100;-80
2023/09/10 09:36:39;;;;;;;13.00;11.70;;;25.40;68.80;;;;;;5081205;28;20020;-80
2023/09/10 09:39:07;;;;;;;13.73;12.32;;;25.40;68.80;;;;;;5081145;28;20027;-80
2023/09/10 09:41:36;;;;;;;12.40;11.20;;;25.50;68.80;;;;;;5080228;28;20028;-80
2023/09/10 09:44:03;;;;;;;13.00;11.70;;;25.60;68.90;;;;;;5080988;28;20050;-80
2023/09/10 09:46:32;;;;;;;12.48;11.27;;;25.70;68.90;;;;;;5063608;28;20057;-80
2023/09/10 09:48:58;;;;;;;12.65;11.38;;;25.80;69.60;;;;;;5097205;28;20101;-80
2023/09/10 09:51:24;;;;;;;12.55;11.35;;;25.80;68.80;;;;;;5097124;28;20044;-80
2023/09/10 09:53:50;;;;;;;12.18;10.98;;;26.00;68.80;;;;;;5079779;28;20023;-80
2023/09/10 09:56:17;;;;;;;11.82;10.60;;;26.00;68.70;;;;;;5096694;28;20035;-81
2023/09/10 09:58:46;;;;;;;11.88;10.73;;;26.20;68.80;;;;;;5096769;28;20032;-80
2023/09/10 10:01:11;;;;;;;11.50;10.40;;;26.20;68.70;;;;;;5079597;28;20032;-80
2023/09/10 10:03:37;;;;;;;11.63;10.50;;;26.30;68.70;;;;;;5079717;28;20119;-80
2023/09/10 10:06:03;;;;;;;11.77;10.63;;;26.40;68.70;;;;;;5096558;28;20032;-80
2023/09/10 10:08:30;;;;;;;12.23;11.02;;;26.50;68.70;;;;;;5080577;28;20043;-80
2023/09/10 10:10:56;;;;;;;10.27;9.27;;;26.60;68.80;;;;;;5096345;28;20035;-81
2023/09/10 10:13:25;;;;;;;10.57;9.57;;;26.70;68.80;;;;;;5079654;28;20036;-80
2023/09/10 10:15:52;;;;;;;10.60;9.55;;;26.70;68.80;;;;;;5096553;28;20050;-79
2023/09/10 10:18:22;;;;;;;10.63;9.52;;;26.80;68.80;;;;;;5097089;28;20032;-81
2023/09/10 10:20:49;;;;;;;9.95;8.95;;;26.90;68.90;;;;;;5096594;28;20391;-81
2023/09/10 10:23:19;;;;;;;10.50;9.40;;;27.00;68.80;;;;;;5079777;28;20031;-80
2023/09/10 10:25:46;;;;;;;10.25;9.25;;;27.10;68.80;;;;;;5079977;28;20035;-79
2023/09/10 10:28:13;;;;;;;9.40;8.50;;;27.20;68.80;;;;;;5079627;28;20032;-80
2023/09/10 10:30:52;;;;;;;9.63;8.63;;;27.30;68.90;;;;;;5078960;28;20039;-80
2023/09/10 10:33:21;;;;;;;9.00;8.13;;;27.40;69.10;;;;;;5096376;28;20092;-80
2023/09/10 10:36:14;;;;;;;9.40;8.40;;;27.50;69.00;;;;;;5096445;28;20023;-80
2023/09/10 10:38:45;;;;;;;8.32;7.53;;;27.60;69.20;;;;;;5096489;28;20085;-80
2023/09/10 10:41:17;;;;;;;9.20;8.27;;;27.60;69.10;;;;;;5115051;28;20027;-80
2023/09/10 10:44:01;;;;;;;8.40;7.60;;;27.80;69.30;;;;;;5080573;28;20080;-80
2023/09/10 10:46:28;;;;;;;;;;;27.80;69.40;;;;;;5079742;28;20027;-80
2023/09/10 10:48:56;;;;;;;7.28;6.45;;;27.90;68.80;;;;;;5095781;28;20003;-80
2023/09/10 10:51:23;;;;;;;7.70;7.00;;;28.00;69.00;;;;;;5079143;28;20043;-81
2023/09/10 10:53:50;;;;;;;7.97;6.93;;;28.00;69.20;;;;;;5080132;28;20042;-80
2023/09/10 10:56:16;;;;;;;8.55;7.75;;;28.10;69.50;;;;;;5079239;28;20028;-80
2023/09/10 10:58:42;;;;;;;7.97;7.13;;;28.20;69.60;;;;;;5079265;28;20032;-80
2023/09/10 11:01:10;;;;;;;7.82;7.03;;;28.30;69.80;;;;;;5079162;28;20166;-80
2023/09/10 11:03:36;;;;;;;8.63;7.13;;;28.30;70.00;;;;;;5096423;28;20058;-81
2023/09/10 11:06:07;;;;;;;7.43;6.65;;;28.40;70.10;;;;;;5095976;28;20028;-80
2023/09/10 11:08:34;;;;;;;7.43;6.55;;;28.40;70.20;;;;;;5080625;28;20353;-80
2023/09/10 11:11:01;;;;;;;7.15;6.25;;;28.50;70.30;;;;;;5079355;28;20118;-80
2023/09/10 11:13:27;;;;;;;7.95;6.70;;;28.50;70.50;;;;;;5095664;28;20027;-81
2023/09/10 11:16:05;;;;;;;8.85;6.65;;;28.60;70.50;;;;;;5078919;28;20123;-80
2023/09/10 11:18:37;;;;;;;7.43;6.43;;;28.60;70.80;;;;;;5095758;28;20020;-81
2023/09/10 11:21:07;;;;;;;6.80;6.10;;;28.70;70.90;;;;;;5095742;28;20080;-81
2023/09/10 11:23:38;;;;;;;7.13;6.43;;;28.70;71.00;;;;;;5095762;28;20051;-81
2023/09/10 11:26:13;;;;;;;6.90;5.93;;;28.80;71.30;;;;;;5113709;28;20559;-80
2023/09/10 11:28:57;;;;;;;6.47;5.60;;;28.80;71.30;;;;;;5078807;28;20028;-80
2023/09/10 11:34:17;;;;;;;6.20;5.57;;;28.90;71.60;;;;;;5095910;28;20055;-80
2023/09/10 11:36:45;;;;;;;6.25;5.57;;;28.90;71.70;;;;;;5079060;28;20032;-80
2023/09/10 11:39:13;;;;;;;6.05;5.20;;;28.90;71.70;;;;;;5095602;28;20028;-80
2023/09/10 11:41:40;;;;;;;6.80;5.55;;;29.00;71.90;;;;;;5079148;28;20039;-80
2023/09/10 11:44:05;;;;;;;6.05;5.25;;;29.00;72.00;;;;;;5065726;28;20031;-80
2023/09/10 11:46:31;;;;;;;6.22;5.57;;;29.00;72.10;;;;;;5100117;28;20024;-80
2023/09/10 11:48:58;;;;;;;6.38;5.60;;;29.10;72.40;;;;;;5099289;28;20058;-80
2023/09/10 11:51:23;;;;;;;6.28;5.53;;;29.10;72.50;;;;;;5099883;28;20487;-80
2023/09/10 11:53:49;;;;;;;6.07;5.43;;;29.10;72.60;;;;;;5084060;28;20035;-79
2023/09/10 11:56:15;;;;;;;6.00;5.32;;;29.10;72.70;;;;;;5102810;28;20497;-80
2023/09/10 11:58:41;;;;;;;6.10;5.40;;;29.20;72.80;;;;;;5101402;28;20024;-80
2023/09/10 12:01:07;;;;;;;6.75;5.70;;;29.20;72.90;;;;;;5082413;28;20032;-79
2023/09/10 12:03:33;;;;;;;6.28;5.20;;;29.20;72.90;;;;;;5100089;28;20035;-81
2023/09/10 12:05:59;;;;;;;5.80;5.20;;;29.20;72.90;;;;;;5099737;28;20104;-80
2023/09/10 12:08:26;;;;;;;6.15;5.38;;;29.30;73.00;;;;;;5099156;28;20027;-81
2023/09/10 12:10:58;;;;;;;6.03;5.43;;;29.30;73.00;;;;;;5098902;28;20126;-80
2023/09/10 12:13:24;;;;;;;6.40;5.75;;;29.30;73.00;;;;;;5099660;28;20027;-80
2023/09/10 12:15:52;;;;;;;5.70;4.90;;;29.30;72.90;;;;;;5098621;28;20020;-80
2023/09/10 12:18:21;;;;;;;5.30;4.80;;;29.30;72.90;;;;;;5117130;28;20024;-81
2023/09/10 12:20:47;;;;;;;6.45;5.20;;;29.40;72.90;;;;;;5099283;28;20036;-81
2023/09/10 12:23:13;;;;;;;5.82;4.95;;;29.40;72.70;;;;;;5081844;28;20088;-80
2023/09/10 12:25:39;;;;;;;5.53;4.88;;;29.40;72.60;;;;;;5116730;28;20032;-79
2023/09/10 12:28:06;;;;;;;5.55;4.93;;;29.40;72.40;;;;;;5082605;28;20054;-81
2023/09/10 12:30:33;;;;;;;5.15;4.43;;;29.40;72.30;;;;;;5100524;28;20490;-80
2023/09/10 12:33:00;;;;;;;5.95;4.97;;;29.50;72.30;;;;;;5082308;28;20055;-80
2023/09/10 12:35:26;;;;;;;6.30;5.05;;;29.50;72.20;;;;;;5065437;28;20035;-80
2023/09/10 12:37:54;;;;;;;5.43;4.93;;;29.50;72.10;;;;;;5083304;28;20031;-80
2023/09/10 12:40:20;;;;;;;5.72;4.70;;;29.50;72.10;;;;;;5117056;28;20032;-80
2023/09/10 12:42:48;;;;;;;5.55;4.78;;;29.60;72.00;;;;;;5098286;28;20024;-80
2023/09/10 12:45:15;;;;;;;5.07;4.57;;;29.60;71.90;;;;;;5065267;28;20051;-81
2023/09/10 12:47:42;;;;;;;5.50;4.78;;;29.60;71.80;;;;;;5081467;28;20040;-80